createdAt,value
2024-02-04T00:01:40.531Z,7.48
2024-02-04T00:04:09.325Z,7.49
2024-02-04T00:06:38.151Z,7.48
2024-02-04T00:09:05.519Z,7.51
2024-02-04T00:11:32.868Z,7.44
2024-02-04T00:14:00.178Z,7.39
2024-02-04T00:16:27.561Z,7.35
2024-02-04T00:18:54.998Z,7.32
2024-02-04T00:21:22.612Z,7.42
2024-02-04T00:23:51.411Z,7.46
2024-02-04T00:26:18.959Z,7.37
2024-02-04T00:28:46.272Z,7.34
2024-02-04T00:31:16.370Z,7.38
2024-02-04T00:33:43.777Z,7.41
2024-02-04T00:36:12.248Z,7.35
2024-02-04T00:38:39.617Z,7.30
2024-02-04T00:41:08.343Z,7.35
2024-02-04T00:43:36.628Z,7.35
2024-02-04T00:46:06.890Z,7.33
2024-02-04T00:48:34.413Z,7.23
2024-02-04T00:51:01.875Z,7.24
2024-02-04T00:53:29.152Z,7.20
2024-02-04T00:55:58.404Z,7.06
2024-02-04T00:58:27.073Z,6.93
2024-02-04T01:00:55.963Z,6.93
2024-02-04T01:03:26.700Z,6.87
2024-02-04T01:05:57.197Z,6.83
2024-02-04T01:08:24.828Z,6.87
2024-02-04T01:10:52.698Z,6.86
2024-02-04T01:13:20.071Z,6.79
2024-02-04T01:15:49.101Z,6.75
2024-02-04T01:18:16.894Z,6.74
2024-02-04T01:20:44.256Z,6.62
2024-02-04T01:23:11.853Z,6.55
2024-02-04T01:25:42.678Z,6.53
2024-02-04T01:28:12.584Z,6.46
2024-02-04T01:30:39.959Z,6.49
2024-02-04T01:33:09.025Z,6.47
2024-02-04T01:35:36.682Z,6.44
2024-02-04T01:38:04.365Z,6.36
2024-02-04T01:40:31.834Z,6.27
2024-02-04T01:42:59.283Z,6.21
2024-02-04T01:45:34.170Z,6.10
2024-02-04T01:48:01.870Z,6.03
2024-02-04T01:50:30.983Z,5.92
2024-02-04T01:52:58.881Z,5.94
2024-02-04T01:55:26.469Z,5.86
2024-02-04T01:57:53.804Z,5.91
2024-02-04T02:00:21.772Z,5.89
2024-02-04T02:02:50.828Z,5.88
2024-02-04T02:05:18.213Z,5.89
2024-02-04T02:07:47.933Z,5.83
2024-02-04T02:10:16.479Z,5.80
2024-02-04T02:12:49.893Z,5.78
2024-02-04T02:15:21.342Z,5.67
2024-02-04T02:17:54.049Z,5.65
2024-02-04T02:20:26.556Z,5.62
2024-02-04T02:23:07.163Z,5.59
2024-02-04T02:25:37.634Z,5.61
2024-02-04T02:28:05.580Z,5.58
2024-02-04T02:30:33.033Z,5.52
2024-02-04T02:33:01.105Z,5.55
2024-02-04T02:35:28.715Z,5.47
2024-02-04T02:38:00.356Z,5.44
2024-02-04T02:40:35.424Z,5.43
2024-02-04T02:43:05.446Z,5.46
2024-02-04T02:45:35.117Z,5.41
2024-02-04T02:48:02.985Z,5.40
2024-02-04T02:50:30.793Z,5.38
2024-02-04T02:52:58.314Z,5.37
2024-02-04T02:55:25.636Z,5.34
2024-02-04T02:57:53.304Z,5.31
2024-02-04T03:00:22.592Z,5.26
2024-02-04T03:02:50.018Z,5.23
2024-02-04T03:05:19.213Z,5.24
2024-02-04T03:07:46.517Z,5.23
2024-02-04T03:10:13.978Z,5.26
2024-02-04T03:12:41.816Z,5.28
2024-02-04T03:15:09.611Z,5.30
2024-02-04T03:17:38.375Z,5.26
2024-02-04T03:20:06.590Z,5.28
2024-02-04T03:22:33.965Z,5.34
2024-02-04T03:25:01.704Z,5.43
2024-02-04T03:27:29.355Z,5.45
2024-02-04T03:29:56.869Z,5.53
2024-02-04T03:32:24.227Z,5.55
2024-02-04T03:34:53.242Z,5.64
2024-02-04T03:37:20.892Z,5.63
2024-02-04T03:39:48.512Z,5.66
2024-02-04T03:42:15.862Z,5.70
2024-02-04T03:44:43.158Z,5.69
2024-02-04T03:47:10.514Z,5.70
2024-02-04T03:49:39.256Z,5.72
2024-02-04T03:52:08.060Z,5.74
2024-02-04T03:54:35.567Z,5.79
2024-02-04T03:57:02.884Z,5.80
2024-02-04T03:59:30.530Z,5.83
2024-02-04T04:01:58.117Z,5.83
2024-02-04T04:04:25.541Z,5.81
2024-02-04T04:06:53.034Z,5.79
2024-02-04T04:09:21.849Z,5.77
2024-02-04T04:11:49.114Z,5.80
2024-02-04T04:14:16.431Z,5.76
2024-02-04T04:16:43.995Z,5.72
2024-02-04T04:19:11.695Z,5.71
2024-02-04T04:21:39.292Z,5.69
2024-02-04T04:24:06.879Z,5.63
2024-02-04T04:26:36.818Z,5.53
2024-02-04T04:29:04.333Z,5.49
2024-02-04T04:31:31.614Z,5.41
2024-02-04T04:33:59.326Z,5.40
2024-02-04T04:36:26.675Z,5.39
2024-02-04T04:38:54.166Z,5.32
2024-02-04T04:41:22.741Z,5.32
2024-02-04T04:43:53.963Z,5.23
2024-02-04T04:46:21.223Z,5.23
2024-02-04T04:48:48.935Z,5.16
2024-02-04T04:51:16.465Z,5.20
2024-02-04T04:53:43.894Z,5.08
2024-02-04T04:56:11.543Z,5.04
2024-02-04T04:58:38.919Z,5.00
2024-02-04T05:01:07.784Z,4.94
2024-02-04T05:03:36.163Z,4.89
2024-02-04T05:06:03.381Z,4.81
2024-02-04T05:08:30.573Z,4.84
2024-02-04T05:10:57.870Z,4.82
2024-02-04T05:13:25.210Z,4.86
2024-02-04T05:15:52.563Z,4.85
2024-02-04T05:18:21.376Z,4.78
2024-02-04T05:20:48.831Z,4.74
2024-02-04T05:23:16.389Z,4.75
2024-02-04T05:25:43.698Z,4.76
2024-02-04T05:28:11.061Z,4.75
2024-02-04T05:30:38.345Z,4.71
2024-02-04T05:33:05.762Z,4.63
2024-02-04T05:35:34.478Z,4.66
2024-02-04T05:38:01.783Z,4.66
2024-02-04T05:40:29.066Z,4.69
2024-02-04T05:42:56.878Z,4.67
2024-02-04T05:45:24.229Z,4.66
2024-02-04T05:47:53.300Z,4.65
2024-02-04T05:50:20.703Z,4.66
2024-02-04T05:52:49.509Z,4.69
2024-02-04T05:55:17.185Z,4.74
2024-02-04T05:57:44.575Z,4.72
2024-02-04T06:00:15.131Z,4.76
2024-02-04T06:02:44.602Z,4.76
2024-02-04T06:05:14.360Z,4.78
2024-02-04T06:07:43.885Z,4.78
2024-02-04T06:10:13.222Z,4.83
2024-02-04T06:12:41.880Z,4.87
2024-02-04T06:15:13.502Z,4.96
2024-02-04T06:17:40.951Z,5.04
2024-02-04T06:20:10.739Z,5.11
2024-02-04T06:22:38.341Z,5.08
2024-02-04T06:25:06.799Z,5.14
2024-02-04T06:27:36.953Z,5.17
2024-02-04T06:30:07.896Z,5.17
2024-02-04T06:32:36.953Z,5.21
2024-02-04T06:35:05.335Z,5.18
2024-02-04T06:37:33.083Z,5.21
2024-02-04T06:40:00.603Z,5.19
2024-02-04T06:42:27.911Z,5.14
2024-02-04T06:44:56.553Z,5.11
2024-02-04T06:47:24.100Z,5.08
2024-02-04T06:49:51.499Z,5.00
2024-02-04T06:52:18.961Z,4.93
2024-02-04T06:54:46.576Z,4.96
2024-02-04T06:57:14.321Z,4.96
2024-02-04T06:59:41.602Z,5.00
2024-02-04T07:02:10.659Z,5.00
2024-02-04T07:04:38.328Z,5.01
2024-02-04T07:07:05.930Z,5.05
2024-02-04T07:09:33.575Z,5.04
2024-02-04T07:12:00.965Z,5.13
2024-02-04T07:14:28.300Z,5.13
2024-02-04T07:16:55.660Z,5.21
2024-02-04T07:19:24.430Z,5.29
2024-02-04T07:21:51.893Z,5.27
2024-02-04T07:24:19.508Z,5.41
2024-02-04T07:26:46.894Z,5.41
2024-02-04T07:29:14.383Z,5.37
2024-02-04T07:31:43.391Z,5.42
2024-02-04T07:34:10.878Z,5.44
2024-02-04T07:36:40.787Z,5.46
2024-02-04T07:39:08.120Z,5.49
2024-02-04T07:41:36.203Z,5.58
2024-02-04T07:44:03.875Z,5.64
2024-02-04T07:46:31.266Z,5.64
2024-02-04T07:48:58.654Z,5.71
2024-02-04T07:51:26.103Z,5.79
2024-02-04T07:53:54.828Z,5.75
2024-02-04T07:56:22.110Z,5.79
2024-02-04T07:58:49.463Z,5.79
2024-02-04T08:01:21.283Z,5.82
2024-02-04T08:03:49.038Z,5.85
2024-02-04T08:06:16.490Z,5.91
2024-02-04T08:08:44.848Z,5.95
2024-02-04T08:11:16.606Z,5.99
2024-02-04T08:13:44.107Z,6.03
2024-02-04T08:16:11.521Z,6.11
2024-02-04T08:18:38.895Z,6.21
2024-02-04T08:21:06.481Z,6.21
2024-02-04T08:23:33.844Z,6.31
2024-02-04T08:26:01.407Z,6.34
2024-02-04T08:28:30.359Z,6.42
2024-02-04T08:30:57.782Z,6.41
2024-02-04T08:33:25.219Z,6.39
2024-02-04T08:35:52.515Z,6.45
2024-02-04T08:38:19.810Z,6.48
2024-02-04T08:40:49.786Z,6.53
2024-02-04T08:43:20.130Z,6.59
2024-02-04T08:45:49.183Z,6.60
2024-02-04T08:48:16.516Z,6.63
2024-02-04T08:50:45.626Z,6.61
2024-02-04T08:53:12.959Z,6.62
2024-02-04T08:55:41.942Z,6.66
2024-02-04T08:58:09.592Z,6.69
2024-02-04T09:00:37.026Z,6.71
2024-02-04T09:03:05.923Z,6.79
2024-02-04T09:05:33.304Z,6.84
2024-02-04T09:08:00.762Z,6.90
2024-02-04T09:10:28.352Z,6.91
2024-02-04T09:12:55.956Z,7.04
2024-02-04T09:15:23.282Z,7.01
2024-02-04T09:17:50.674Z,7.02
2024-02-04T09:20:19.983Z,7.08
2024-02-04T09:22:47.344Z,7.06
2024-02-04T09:25:15.126Z,7.07
2024-02-04T09:27:42.500Z,7.07
2024-02-04T09:30:11.171Z,7.09
2024-02-04T09:32:38.668Z,7.17
2024-02-04T09:35:06.560Z,7.29
2024-02-04T09:37:35.458Z,7.32
2024-02-04T09:40:04.509Z,7.40
2024-02-04T09:42:32.515Z,7.60
2024-02-04T09:45:00.521Z,7.73
2024-02-04T09:47:29.925Z,7.87
2024-02-04T09:49:57.936Z,7.91
2024-02-04T09:52:30.394Z,8.09
2024-02-04T09:55:01.409Z,8.28
2024-02-04T09:57:31.094Z,8.36
2024-02-04T09:59:58.592Z,8.26
2024-02-04T10:02:27.353Z,8.27
2024-02-04T10:04:54.935Z,8.33
2024-02-04T10:07:22.642Z,8.40
2024-02-04T10:09:50.196Z,8.42
2024-02-04T10:12:19.418Z,8.36
2024-02-04T10:14:48.302Z,8.28
2024-02-04T10:17:16.654Z,8.17
2024-02-04T10:19:43.778Z,8.17
2024-02-04T10:22:11.384Z,8.34
2024-02-04T10:24:39.219Z,8.31
2024-02-04T10:27:09.923Z,8.52
2024-02-04T10:29:40.405Z,8.72
2024-02-04T10:32:08.632Z,8.97
2024-02-04T10:34:39.097Z,9.04
2024-02-04T10:37:06.853Z,8.64
2024-02-04T10:39:35.952Z,8.60
2024-02-04T10:42:05.530Z,8.70
2024-02-04T10:44:37.066Z,8.52
2024-02-04T10:47:10.955Z,8.48
2024-02-04T10:49:42.680Z,8.40
2024-02-04T10:52:11.298Z,8.48
2024-02-04T10:54:39.136Z,8.36
2024-02-04T10:57:12.914Z,8.25
2024-02-04T10:59:40.837Z,8.20
2024-02-04T11:02:11.991Z,8.35
2024-02-04T11:04:40.816Z,8.20
2024-02-04T11:07:09.539Z,8.17
2024-02-04T11:09:37.357Z,8.30
2024-02-04T11:12:10.385Z,8.27
2024-02-04T11:14:40.381Z,8.12
2024-02-04T11:17:25.290Z,8.29
2024-02-04T11:20:12.929Z,8.38
2024-02-04T11:23:02.900Z,8.30
2024-02-04T11:25:48.676Z,8.17
2024-02-04T11:28:17.582Z,8.17
2024-02-04T11:30:45.263Z,8.34
2024-02-04T11:33:19.372Z,8.30
2024-02-04T11:35:46.841Z,8.17
2024-02-04T11:38:18.687Z,8.32
2024-02-04T11:40:46.961Z,8.28
2024-02-04T11:43:15.929Z,8.44
2024-02-04T11:45:44.875Z,8.41
2024-02-04T11:48:14.155Z,8.41
2024-02-04T11:50:42.046Z,8.41
2024-02-04T11:53:11.112Z,8.35
2024-02-04T11:55:44.934Z,8.45
2024-02-04T11:58:14.444Z,8.51
2024-02-04T12:00:44.126Z,8.65
2024-02-04T12:03:12.671Z,8.82
2024-02-04T12:05:44.369Z,8.81
2024-02-04T12:08:13.341Z,8.97
2024-02-04T12:10:41.412Z,8.77
2024-02-04T12:13:08.712Z,8.80
2024-02-04T12:15:36.470Z,8.77
2024-02-04T12:18:07.410Z,8.61
2024-02-04T12:20:35.037Z,8.49
2024-02-04T12:23:05.523Z,8.59
2024-02-04T12:25:33.292Z,8.59
2024-02-04T12:28:01.722Z,8.61
2024-02-04T12:30:31.153Z,8.44
2024-02-04T12:33:00.829Z,8.42
2024-02-04T12:35:28.289Z,8.42
2024-02-04T12:37:56.423Z,8.35
2024-02-04T12:40:26.088Z,8.42
2024-02-04T12:42:55.536Z,8.30
2024-02-04T12:45:25.271Z,8.23
2024-02-04T12:47:53.713Z,8.15
2024-02-04T12:50:22.361Z,8.12
2024-02-04T12:53:01.817Z,8.11
2024-02-04T12:55:31.576Z,8.09
2024-02-04T12:58:06.318Z,8.12
2024-02-04T13:00:35.706Z,8.13
2024-02-04T13:03:04.289Z,8.07
2024-02-04T13:05:32.720Z,8.09
2024-02-04T13:08:00.962Z,8.06
2024-02-04T13:10:30.266Z,8.06
2024-02-04T13:13:05.168Z,8.10
2024-02-04T13:15:38.802Z,8.15
2024-02-04T13:18:06.786Z,8.16
2024-02-04T13:20:34.237Z,8.08
2024-02-04T13:23:01.860Z,8.09
2024-02-04T13:25:30.713Z,8.17
2024-02-04T13:28:00.828Z,8.17
2024-02-04T13:30:28.784Z,8.13
2024-02-04T13:32:57.364Z,8.13
2024-02-04T13:35:25.359Z,8.09
2024-02-04T13:37:53.069Z,8.11
2024-02-04T13:40:21.666Z,8.11
2024-02-04T13:42:50.758Z,8.08
2024-02-04T13:45:18.664Z,8.12
2024-02-04T13:47:46.329Z,8.09
2024-02-04T13:50:13.814Z,8.02
2024-02-04T13:52:41.902Z,8.07
2024-02-04T13:55:11.114Z,8.00
2024-02-04T13:57:38.786Z,7.99
2024-02-04T14:00:10.990Z,8.05
2024-02-04T14:02:38.295Z,7.99
2024-02-04T14:05:05.971Z,8.09
2024-02-04T14:07:33.446Z,7.96
2024-02-04T14:10:00.738Z,7.99
2024-02-04T14:12:28.069Z,7.98
2024-02-04T14:14:55.571Z,7.98
2024-02-04T14:17:24.516Z,7.94
2024-02-04T14:19:52.213Z,7.96
2024-02-04T14:22:19.696Z,7.96
2024-02-04T14:24:47.661Z,8.00
2024-02-04T14:27:14.976Z,7.97
2024-02-04T14:29:42.337Z,7.93
2024-02-04T14:32:09.768Z,7.94
2024-02-04T14:34:38.605Z,7.91
2024-02-04T14:37:06.259Z,7.92
2024-02-04T14:39:33.759Z,7.91
2024-02-04T14:42:01.262Z,7.91
2024-02-04T14:44:28.627Z,7.96
2024-02-04T14:46:55.933Z,7.95
2024-02-04T14:49:23.275Z,7.95
2024-02-04T14:51:51.999Z,8.00
2024-02-04T14:54:19.324Z,8.07
2024-02-04T14:56:46.785Z,7.98
2024-02-04T14:59:21.672Z,7.98
2024-02-04T15:01:51.474Z,7.94
2024-02-04T15:04:20.188Z,7.96
2024-02-04T15:06:47.655Z,7.95
2024-02-04T15:09:16.628Z,7.95
2024-02-04T15:11:45.098Z,8.00
2024-02-04T15:14:12.983Z,7.99
2024-02-04T15:16:41.516Z,7.95
2024-02-04T15:19:10.452Z,7.93
2024-02-04T15:21:38.598Z,7.98
2024-02-04T15:24:07.380Z,7.95
2024-02-04T15:26:37.004Z,7.90
2024-02-04T15:29:05.334Z,7.90
2024-02-04T15:31:32.749Z,7.91
2024-02-04T15:34:00.798Z,7.92
2024-02-04T15:36:28.164Z,7.95
2024-02-04T15:38:55.432Z,7.93
2024-02-04T15:41:23.838Z,7.88
2024-02-04T15:43:53.469Z,7.85
2024-02-04T15:46:21.153Z,7.89
2024-02-04T15:48:53.009Z,7.96
2024-02-04T15:51:20.871Z,7.99
2024-02-04T15:53:49.522Z,7.94
2024-02-04T15:56:20.340Z,7.92
2024-02-04T15:58:48.464Z,7.91
2024-02-04T16:01:19.642Z,7.92
2024-02-04T16:03:47.645Z,7.94
2024-02-04T16:06:15.942Z,7.98
2024-02-04T16:08:43.208Z,7.92
2024-02-04T16:11:16.269Z,7.90
2024-02-04T16:13:44.662Z,7.92
2024-02-04T16:16:14.548Z,7.90
2024-02-04T16:18:44.254Z,7.88
2024-02-04T16:21:11.858Z,7.88
2024-02-04T16:23:39.235Z,7.87
2024-02-04T16:26:06.914Z,7.88
2024-02-04T16:28:34.270Z,7.87
2024-02-04T16:31:01.649Z,7.87
2024-02-04T16:33:29.009Z,7.85
2024-02-04T16:35:57.587Z,7.92
2024-02-04T16:38:26.254Z,7.88
2024-02-04T16:40:53.563Z,7.93
2024-02-04T16:43:24.118Z,7.95
2024-02-04T16:45:52.275Z,7.85
2024-02-04T16:48:19.875Z,7.82
2024-02-04T16:50:47.190Z,7.80
2024-02-04T16:53:16.077Z,7.85
2024-02-04T16:55:43.409Z,7.84
2024-02-04T16:58:11.401Z,7.85
2024-02-04T17:00:38.801Z,7.82
2024-02-04T17:03:07.514Z,7.90
2024-02-04T17:05:45.262Z,7.90
2024-02-04T17:08:22.097Z,7.90
2024-02-04T17:10:50.303Z,7.88
2024-02-04T17:13:18.314Z,7.91
2024-02-04T17:15:46.277Z,7.86
2024-02-04T17:18:25.827Z,7.83
2024-02-04T17:20:54.462Z,7.81
2024-02-04T17:23:26.820Z,7.87
2024-02-04T17:25:59.610Z,7.84
2024-02-04T17:28:27.448Z,7.92
2024-02-04T17:30:55.156Z,7.91
2024-02-04T17:33:23.130Z,7.87
2024-02-04T17:35:51.597Z,7.84
2024-02-04T17:38:18.956Z,7.87
2024-02-04T17:40:47.718Z,7.81
2024-02-04T17:43:15.243Z,7.76
2024-02-04T17:45:42.635Z,7.80
2024-02-04T17:48:10.052Z,7.77
2024-02-04T17:50:37.415Z,7.74
2024-02-04T17:53:04.937Z,7.72
2024-02-04T17:55:32.454Z,7.63
2024-02-04T17:58:02.730Z,7.63
2024-02-04T18:00:30.087Z,7.61
2024-02-04T18:02:58.286Z,7.58
2024-02-04T18:05:25.539Z,7.54
2024-02-04T18:07:53.066Z,7.52
2024-02-04T18:10:20.567Z,7.47
2024-02-04T18:12:48.180Z,7.45
2024-02-04T18:15:17.003Z,7.45
2024-02-04T18:17:44.895Z,7.46
2024-02-04T18:20:13.368Z,7.46
2024-02-04T18:22:40.824Z,7.46
2024-02-04T18:25:09.835Z,7.43
2024-02-04T18:27:37.776Z,7.42
2024-02-04T18:30:06.707Z,7.39
2024-02-04T18:32:35.494Z,7.39
2024-02-04T18:35:03.021Z,7.37
2024-02-04T18:37:30.678Z,7.35
2024-02-04T18:39:58.079Z,7.33
2024-02-04T18:42:25.306Z,7.32
2024-02-04T18:44:52.838Z,7.36
2024-02-04T18:47:20.192Z,7.37
2024-02-04T18:49:49.151Z,7.34
2024-02-04T18:52:16.793Z,7.34
2024-02-04T18:54:44.259Z,7.37
2024-02-04T18:57:11.519Z,7.42
2024-02-04T18:59:38.780Z,7.41
2024-02-04T19:02:06.740Z,7.34
2024-02-04T19:04:34.266Z,7.35
2024-02-04T19:07:03.187Z,7.35
2024-02-04T19:09:30.819Z,7.35
2024-02-04T19:11:58.177Z,7.41
2024-02-04T19:14:25.526Z,7.44
2024-02-04T19:16:53.076Z,7.39
2024-02-04T19:19:20.784Z,7.47
2024-02-04T19:21:49.558Z,7.48
2024-02-04T19:24:18.270Z,7.49
2024-02-04T19:26:46.487Z,7.55
2024-02-04T19:29:13.741Z,7.53
2024-02-04T19:31:41.059Z,7.52
2024-02-04T19:34:09.457Z,7.47
2024-02-04T19:36:36.831Z,7.49
2024-02-04T19:39:04.270Z,7.49
2024-02-04T19:41:33.270Z,7.39
2024-02-04T19:44:00.642Z,7.46
2024-02-04T19:46:27.968Z,7.41
2024-02-04T19:48:55.332Z,7.44
2024-02-04T19:51:22.739Z,7.37
2024-02-04T19:53:50.455Z,7.37
2024-02-04T19:56:17.857Z,7.36
2024-02-04T19:58:46.615Z,7.34
2024-02-04T20:01:14.297Z,7.30
2024-02-04T20:03:41.850Z,7.29
2024-02-04T20:06:11.221Z,7.25
2024-02-04T20:08:38.714Z,7.21
2024-02-04T20:11:06.307Z,7.20
2024-02-04T20:13:33.726Z,7.20
2024-02-04T20:16:02.427Z,7.18
2024-02-04T20:18:29.958Z,7.12
2024-02-04T20:20:58.257Z,7.15
2024-02-04T20:23:25.354Z,7.13
2024-02-04T20:25:53.034Z,7.08
2024-02-04T20:28:20.373Z,7.03
2024-02-04T20:30:47.816Z,7.06
2024-02-04T20:33:16.681Z,7.10
2024-02-04T20:35:44.955Z,7.08
2024-02-04T20:38:12.077Z,7.02
2024-02-04T20:40:39.326Z,7.01
2024-02-04T20:43:06.651Z,6.87
2024-02-04T20:45:34.022Z,6.92
2024-02-04T20:48:01.400Z,6.81
2024-02-04T20:50:30.195Z,6.71
2024-02-04T20:52:57.703Z,6.63
2024-02-04T20:55:25.028Z,6.66
2024-02-04T20:57:52.435Z,6.65
2024-02-04T21:00:20.031Z,6.63
2024-02-04T21:02:47.342Z,6.53
2024-02-04T21:05:14.817Z,6.43
2024-02-04T21:07:46.140Z,6.43
2024-02-04T21:10:13.617Z,6.41
2024-02-04T21:12:41.010Z,6.41
2024-02-04T21:15:09.485Z,6.41
2024-02-04T21:17:37.141Z,6.37
2024-02-04T21:20:05.372Z,6.31
2024-02-04T21:22:32.761Z,6.30
2024-02-04T21:25:04.120Z,6.28
2024-02-04T21:27:32.440Z,6.19
2024-02-04T21:29:59.918Z,6.11
2024-02-04T21:32:27.239Z,6.09
2024-02-04T21:34:55.406Z,6.07
2024-02-04T21:37:22.998Z,6.12
2024-02-04T21:39:50.519Z,6.03
2024-02-04T21:42:19.548Z,5.96
2024-02-04T21:44:47.193Z,5.97
2024-02-04T21:47:14.520Z,5.92
2024-02-04T21:49:41.993Z,5.95
2024-02-04T21:52:09.408Z,5.91
2024-02-04T21:54:36.835Z,5.89
2024-02-04T21:57:04.658Z,5.89
2024-02-04T21:59:33.328Z,5.87
2024-02-04T22:02:00.780Z,5.88
2024-02-04T22:04:28.311Z,5.84
2024-02-04T22:06:55.791Z,5.87
2024-02-04T22:09:23.097Z,5.87
2024-02-04T22:11:50.461Z,5.88
2024-02-04T22:14:17.778Z,5.84
2024-02-04T22:16:46.902Z,5.87
2024-02-04T22:19:14.390Z,5.85
2024-02-04T22:21:41.833Z,5.81
2024-02-04T22:24:09.493Z,5.80
2024-02-04T22:26:36.769Z,5.79
2024-02-04T22:29:04.079Z,5.82
2024-02-04T22:31:31.397Z,5.82
2024-02-04T22:34:00.581Z,5.80
2024-02-04T22:36:28.064Z,5.79
2024-02-04T22:38:55.358Z,5.79
2024-02-04T22:41:22.658Z,5.80
2024-02-04T22:43:50.095Z,5.82
2024-02-04T22:46:17.535Z,5.82
2024-02-04T22:48:45.021Z,5.84
2024-02-04T22:51:13.963Z,5.83
2024-02-04T22:53:41.247Z,5.86
2024-02-04T22:56:09.827Z,5.90
2024-02-04T22:58:37.594Z,5.90
2024-02-04T23:01:05.130Z,5.92
2024-02-04T23:03:32.648Z,6.00
2024-02-04T23:06:00.071Z,5.96
2024-02-04T23:08:28.863Z,5.98
2024-02-04T23:10:56.245Z,5.97
2024-02-04T23:13:23.608Z,5.98
2024-02-04T23:15:50.919Z,5.97
2024-02-04T23:18:18.278Z,5.99
2024-02-04T23:20:45.616Z,6.00
2024-02-04T23:23:13.025Z,5.97
2024-02-04T23:25:41.666Z,6.00
2024-02-04T23:28:09.365Z,5.99
2024-02-04T23:30:36.735Z,6.07
2024-02-04T23:33:04.288Z,6.04
2024-02-04T23:35:31.637Z,6.03
2024-02-04T23:37:58.928Z,6.04
2024-02-04T23:40:26.433Z,6.11
2024-02-04T23:42:55.196Z,6.03
2024-02-04T23:45:22.461Z,6.01
2024-02-04T23:47:49.765Z,6.06
2024-02-04T23:50:17.295Z,6.11
2024-02-04T23:52:44.944Z,6.12
2024-02-04T23:55:12.359Z,6.12
2024-02-04T23:57:39.733Z,6.12
